Wetterdaten: Woche 22.02.16 - 28.02.16 (KW8)
Datum Zeit Temperatur Luftfeuchte Luftdruck Niederschlag Windrichtung Sonnenschein Solar Wind
22.02.2016 00:00 8,0 C 87 % 1014,7 hPa 0,0 l/m SW 0,00 h 0 W/m 16,2 km/h (3 Bft)
22.02.2016 01:00 7,5 C 89 % 1013,9 hPa 0,0 l/m SW 0,00 h 0 W/m 15,2 km/h (3 Bft)
22.02.2016 02:00 7,4 C 88 % 1013,4 hPa 0,0 l/m SW 0,00 h 0 W/m 12,5 km/h (3 Bft)
22.02.2016 03:00 7,0 C 88 % 1012,8 hPa 0,0 l/m SW 0,00 h 0 W/m 11,9 km/h (2 Bft)
22.02.2016 04:00 6,9 C 89 % 1012,8 hPa 0,0 l/m W-SW 0,00 h 0 W/m 15,8 km/h (3 Bft)
22.02.2016 05:00 9,6 C 82 % 1012,8 hPa 0,0 l/m W-SW 0,00 h 0 W/m 24,8 km/h (4 Bft)
22.02.2016 06:00 9,9 C 81 % 1012,8 hPa 0,0 l/m W-SW 0,00 h 0 W/m 26,2 km/h (4 Bft)
22.02.2016 07:00 7,9 C 86 % 1013,1 hPa 0,0 l/m SW 0,00 h 13 W/m 19,0 km/h (3 Bft)
22.02.2016 08:00 9,1 C 84 % 1013,2 hPa 0,0 l/m W-SW 0,25 h 77 W/m 29,0 km/h (5 Bft)
22.02.2016 09:00 10,8 C 77 % 1013,0 hPa 0,0 l/m SW 1,00 h 251 W/m 34,1 km/h (5 Bft)
22.02.2016 10:00 11,8 C 70 % 1012,7 hPa 0,0 l/m W 1,00 h 351 W/m 33,9 km/h (5 Bft)
22.02.2016 11:00 12,6 C 67 % 1012,3 hPa 0,0 l/m W-SW 0,92 h 443 W/m 36,2 km/h (5 Bft)
22.02.2016 12:00 13,7 C 61 % 1011,4 hPa 0,0 l/m W-SW 1,00 h 477 W/m 30,3 km/h (5 Bft)
22.02.2016 13:00 14,6 C 56 % 1010,6 hPa 0,0 l/m W-SW 1,00 h 488 W/m 33,8 km/h (5 Bft)
22.02.2016 14:00 14,7 C 54 % 1009,9 hPa 0,0 l/m W-SW 0,42 h 227 W/m 29,7 km/h (5 Bft)
22.02.2016 15:00 14,5 C 55 % 1009,3 hPa 0,0 l/m W 0,08 h 146 W/m 24,8 km/h (4 Bft)
22.02.2016 16:00 13,8 C 59 % 1009,1 hPa 0,0 l/m W-SW 0,08 h 60 W/m 13,3 km/h (3 Bft)
22.02.2016 17:00 13,1 C 63 % 1008,6 hPa 0,0 l/m W-SW 0,17 h 25 W/m 10,7 km/h (2 Bft)
22.02.2016 18:00 12,4 C 65 % 1008,8 hPa 0,0 l/m W-SW 0,00 h 0 W/m 11,1 km/h (2 Bft)
22.02.2016 19:00 12,2 C 61 % 1009,1 hPa 0,0 l/m W 0,00 h 0 W/m 16,4 km/h (3 Bft)
22.02.2016 20:00 11,8 C 62 % 1009,5 hPa 0,0 l/m W-SW 0,00 h 0 W/m 17,0 km/h (3 Bft)
22.02.2016 21:00 10,9 C 69 % 1009,5 hPa 0,0 l/m W-SW 0,00 h 0 W/m 21,4 km/h (4 Bft)
22.02.2016 22:00 9,9 C 73 % 1009,5 hPa 0,0 l/m W-SW 0,00 h 0 W/m 24,8 km/h (4 Bft)
22.02.2016 23:00 9,5 C 74 % 1009,6 hPa 0,0 l/m W-SW 0,00 h 0 W/m 27,0 km/h (4 Bft)
23.02.2016 00:00 9,4 C 75 % 1009,7 hPa 0,0 l/m W 0,00 h 0 W/m 23,4 km/h (4 Bft)
23.02.2016 01:00 9,0 C 77 % 1009,7 hPa 0,0 l/m W 0,00 h 0 W/m 23,2 km/h (4 Bft)
23.02.2016 02:00 8,7 C 76 % 1009,4 hPa 0,0 l/m W-SW 0,00 h 0 W/m 26,4 km/h (4 Bft)
23.02.2016 03:00 8,1 C 76 % 1009,0 hPa 0,0 l/m W-SW 0,00 h 0 W/m 23,5 km/h (4 Bft)
23.02.2016 04:00 7,5 C 80 % 1008,6 hPa 0,0 l/m W-SW 0,00 h 0 W/m 25,7 km/h (4 Bft)
23.02.2016 05:00 7,5 C 80 % 1008,5 hPa 0,0 l/m W-SW 0,00 h 0 W/m 28,2 km/h (4 Bft)
23.02.2016 06:00 7,5 C 81 % 1008,1 hPa 0,0 l/m W 0,00 h 0 W/m 29,3 km/h (5 Bft)
23.02.2016 07:00 7,5 C 82 % 1007,9 hPa 0,0 l/m W-SW 0,00 h 12 W/m 27,5 km/h (4 Bft)
23.02.2016 08:00 7,4 C 83 % 1008,1 hPa 0,0 l/m W-SW 0,00 h 42 W/m 26,0 km/h (4 Bft)
23.02.2016 09:00 7,4 C 84 % 1008,1 hPa 0,0 l/m W-SW 0,00 h 85 W/m 32,5 km/h (5 Bft)
23.02.2016 10:00 7,8 C 83 % 1008,1 hPa 0,0 l/m W-SW 0,00 h 96 W/m 34,9 km/h (5 Bft)
23.02.2016 11:00 7,6 C 86 % 1008,1 hPa 0,0 l/m W-SW 0,00 h 72 W/m 26,7 km/h (4 Bft)
23.02.2016 12:00 7,8 C 85 % 1007,6 hPa 0,0 l/m W-SW 0,00 h 113 W/m 32,6 km/h (5 Bft)
23.02.2016 13:00 8,3 C 83 % 1006,9 hPa 0,0 l/m SW 0,00 h 126 W/m 37,0 km/h (5 Bft)
23.02.2016 14:00 7,0 C 83 % 1007,2 hPa 0,8 l/m W 0,00 h 55 W/m 28,0 km/h (4 Bft)
23.02.2016 15:00 3,2 C 93 % 1008,9 hPa 1,0 l/m N-NW 0,00 h 53 W/m 15,7 km/h (3 Bft)
23.02.2016 16:00 2,4 C 94 % 1010,5 hPa 0,8 l/m N-NW 0,00 h 19 W/m 16,8 km/h (3 Bft)
23.02.2016 17:00 1,3 C 95 % 1012,3 hPa 0,6 l/m N 0,00 h 8 W/m 6,6 km/h (2 Bft)
23.02.2016 18:00 1,3 C 95 % 1014,0 hPa 0,2 l/m N 0,00 h 0 W/m 2,1 km/h (1 Bft)
23.02.2016 19:00 1,3 C 95 % 1015,5 hPa 0,0 l/m W 0,00 h 0 W/m 5,8 km/h (1 Bft)
23.02.2016 20:00 1,3 C 95 % 1016,7 hPa 0,2 l/m W 0,00 h 0 W/m 7,2 km/h (2 Bft)
23.02.2016 21:00 0,8 C 94 % 1017,4 hPa 0,0 l/m W 0,00 h 0 W/m 8,6 km/h (2 Bft)
23.02.2016 22:00 0,5 C 94 % 1017,9 hPa 0,0 l/m W 0,00 h 0 W/m 7,8 km/h (2 Bft)
23.02.2016 23:00 0,2 C 94 % 1018,2 hPa 0,0 l/m W 0,00 h 0 W/m 1,7 km/h (1 Bft)
24.02.2016 00:00 0,3 C 93 % 1018,3 hPa 0,0 l/m W 0,00 h 0 W/m 9,7 km/h (2 Bft)
24.02.2016 01:00 0,2 C 92 % 1018,3 hPa 0,0 l/m W 0,00 h 0 W/m 10,3 km/h (2 Bft)
24.02.2016 02:00 0,0 C 91 % 1018,4 hPa 0,0 l/m W 0,00 h 0 W/m 10,9 km/h (2 Bft)
24.02.2016 03:00 -0,4 C 92 % 1018,4 hPa 0,0 l/m S-SW 0,00 h 0 W/m 9,1 km/h (2 Bft)
24.02.2016 04:00 -0,9 C 95 % 1018,6 hPa 0,0 l/m S-SW 0,00 h 0 W/m 6,8 km/h (2 Bft)
24.02.2016 05:00 -0,7 C 96 % 1018,8 hPa 0,0 l/m S-SW 0,00 h 0 W/m 5,1 km/h (1 Bft)
24.02.2016 06:00 -0,4 C 96 % 1018,8 hPa 0,0 l/m SW 0,00 h 0 W/m 8,6 km/h (2 Bft)
24.02.2016 07:00 -0,5 C 96 % 1019,0 hPa 0,0 l/m SW 0,00 h 11 W/m 5,1 km/h (1 Bft)
24.02.2016 08:00 -0,8 C 96 % 1019,4 hPa 0,0 l/m SW 0,17 h 49 W/m 8,3 km/h (2 Bft)
24.02.2016 09:00 -0,3 C 96 % 1019,4 hPa 0,0 l/m SW 0,08 h 123 W/m 5,4 km/h (1 Bft)
24.02.2016 10:00 0,4 C 94 % 1019,2 hPa 0,0 l/m SW 0,00 h 131 W/m 3,3 km/h (1 Bft)
24.02.2016 11:00 1,2 C 92 % 1018,8 hPa 0,0 l/m SW 0,50 h 354 W/m 3,2 km/h (1 Bft)
24.02.2016 12:00 2,1 C 88 % 1018,1 hPa 0,0 l/m W 0,08 h 172 W/m 4,4 km/h (1 Bft)
24.02.2016 13:00 2,8 C 85 % 1017,2 hPa 0,0 l/m W-NW 0,50 h 380 W/m 6,0 km/h (2 Bft)
24.02.2016 14:00 4,1 C 75 % 1015,9 hPa 0,0 l/m N 1,00 h 379 W/m 6,3 km/h (2 Bft)
24.02.2016 15:00 4,3 C 71 % 1014,8 hPa 0,0 l/m NO 0,58 h 209 W/m 5,9 km/h (2 Bft)
24.02.2016 16:00 3,7 C 73 % 1014,1 hPa 0,0 l/m N-NO 0,08 h 67 W/m 6,4 km/h (2 Bft)
24.02.2016 17:00 3,2 C 74 % 1013,6 hPa 0,0 l/m NO 0,00 h 15 W/m 5,2 km/h (1 Bft)
24.02.2016 18:00 2,6 C 79 % 1013,6 hPa 0,0 l/m N 0,00 h 0 W/m 0,5 km/h (0 Bft)
24.02.2016 19:00 2,2 C 83 % 1013,3 hPa 0,0 l/m N 0,00 h 0 W/m 0,0 km/h (0 Bft)
24.02.2016 20:00 2,0 C 86 % 1012,6 hPa 0,0 l/m SO 0,00 h 0 W/m 2,8 km/h (1 Bft)
24.02.2016 21:00 1,5 C 90 % 1012,0 hPa 0,4 l/m N 0,00 h 0 W/m 0,0 km/h (0 Bft)
24.02.2016 22:00 1,2 C 92 % 1011,4 hPa 0,6 l/m N 0,00 h 0 W/m 0,0 km/h (0 Bft)
24.02.2016 23:00 0,8 C 93 % 1010,7 hPa 0,8 l/m N 0,00 h 0 W/m 0,0 km/h (0 Bft)
25.02.2016 00:00 0,6 C 95 % 1010,3 hPa 1,0 l/m N 0,00 h 0 W/m 0,0 km/h (0 Bft)
25.02.2016 01:00 0,6 C 95 % 1009,7 hPa 1,4 l/m N 0,00 h 0 W/m 0,0 km/h (0 Bft)
25.02.2016 02:00 0,5 C 96 % 1009,1 hPa 0,8 l/m N 0,00 h 0 W/m 0,0 km/h (0 Bft)
25.02.2016 03:00 0,4 C 96 % 1008,5 hPa 0,8 l/m N 0,00 h 0 W/m 0,0 km/h (0 Bft)
25.02.2016 04:00 0,4 C 97 % 1008,1 hPa 1,0 l/m N 0,00 h 0 W/m 0,0 km/h (0 Bft)
25.02.2016 05:00 0,3 C 97 % 1008,2 hPa 0,6 l/m N 0,00 h 0 W/m 0,0 km/h (0 Bft)
25.02.2016 06:00 0,3 C 97 % 1008,4 hPa 0,8 l/m N 0,00 h 0 W/m 0,0 km/h (0 Bft)
25.02.2016 07:00 0,1 C 97 % 1008,6 hPa 0,8 l/m N 0,00 h 13 W/m 0,0 km/h (0 Bft)
25.02.2016 08:00 0,3 C 97 % 1009,2 hPa 0,6 l/m N 0,00 h 45 W/m 0,0 km/h (0 Bft)
25.02.2016 09:00 0,6 C 98 % 1009,7 hPa 0,2 l/m SO 0,00 h 79 W/m 2,3 km/h (1 Bft)
25.02.2016 10:00 0,9 C 97 % 1010,1 hPa 0,4 l/m O-SO 0,00 h 126 W/m 5,1 km/h (1 Bft)
25.02.2016 11:00 1,2 C 97 % 1010,6 hPa 0,0 l/m O 0,00 h 163 W/m 7,5 km/h (2 Bft)
25.02.2016 12:00 1,3 C 95 % 1011,1 hPa 0,0 l/m O 0,17 h 245 W/m 8,4 km/h (2 Bft)
25.02.2016 13:00 1,3 C 93 % 1011,3 hPa 0,0 l/m O-NO 0,00 h 163 W/m 6,9 km/h (2 Bft)
25.02.2016 14:00 1,5 C 93 % 1011,6 hPa 0,0 l/m O-NO 0,00 h 136 W/m 5,6 km/h (1 Bft)
25.02.2016 15:00 1,4 C 91 % 1012,0 hPa 0,0 l/m N 0,00 h 60 W/m 0,9 km/h (0 Bft)
25.02.2016 16:00 1,1 C 93 % 1012,5 hPa 0,0 l/m N 0,00 h 15 W/m 0,0 km/h (0 Bft)
25.02.2016 17:00 0,9 C 94 % 1012,8 hPa 0,0 l/m N 0,00 h 13 W/m 0,0 km/h (0 Bft)
25.02.2016 18:00 0,8 C 94 % 1013,4 hPa 0,0 l/m O 0,00 h 0 W/m 0,8 km/h (0 Bft)
25.02.2016 19:00 0,4 C 95 % 1013,9 hPa 0,0 l/m N 0,00 h 0 W/m 0,4 km/h (0 Bft)
25.02.2016 20:00 0,3 C 96 % 1014,0 hPa 0,0 l/m N 0,00 h 0 W/m 0,0 km/h (0 Bft)
25.02.2016 21:00 0,5 C 96 % 1014,4 hPa 0,0 l/m O 0,00 h 0 W/m 0,0 km/h (0 Bft)
25.02.2016 22:00 0,2 C 96 % 1014,6 hPa 0,0 l/m O 0,00 h 0 W/m 0,8 km/h (0 Bft)
25.02.2016 23:00 -0,0 C 96 % 1014,6 hPa 0,0 l/m N 0,00 h 0 W/m 0,0 km/h (0 Bft)
26.02.2016 00:00 -0,3 C 96 % 1014,8 hPa 0,0 l/m N 0,00 h 0 W/m 0,0 km/h (0 Bft)
26.02.2016 01:00 -0,5 C 97 % 1014,7 hPa 0,0 l/m N 0,00 h 0 W/m 0,0 km/h (0 Bft)
26.02.2016 02:00 -0,6 C 97 % 1014,6 hPa 0,0 l/m O 0,00 h 0 W/m 0,3 km/h (0 Bft)
26.02.2016 03:00 -0,8 C 97 % 1014,1 hPa 0,0 l/m N 0,00 h 0 W/m 0,4 km/h (0 Bft)
26.02.2016 04:00 -1,0 C 97 % 1014,0 hPa 0,0 l/m N 0,00 h 0 W/m 0,0 km/h (0 Bft)
26.02.2016 05:00 -1,1 C 97 % 1013,9 hPa 0,0 l/m N 0,00 h 0 W/m 0,0 km/h (0 Bft)
26.02.2016 06:00 -1,3 C 97 % 1013,6 hPa 0,0 l/m O 0,00 h 0 W/m 4,0 km/h (1 Bft)
26.02.2016 07:00 -2,0 C 96 % 1013,2 hPa 0,0 l/m N 0,08 h 20 W/m 1,5 km/h (1 Bft)
26.02.2016 08:00 -2,0 C 97 % 1013,0 hPa 0,0 l/m N 0,50 h 105 W/m 0,4 km/h (0 Bft)
26.02.2016 09:00 -1,0 C 96 % 1012,6 hPa 0,0 l/m O 1,00 h 287 W/m 7,2 km/h (2 Bft)
26.02.2016 10:00 0,4 C 92 % 1012,0 hPa 0,0 l/m O 1,00 h 418 W/m 12,6 km/h (3 Bft)
26.02.2016 11:00 1,6 C 80 % 1011,7 hPa 0,0 l/m O 1,00 h 515 W/m 15,0 km/h (3 Bft)
26.02.2016 12:00 2,2 C 70 % 1011,0 hPa 0,0 l/m O 1,00 h 510 W/m 18,6 km/h (3 Bft)
26.02.2016 13:00 2,7 C 67 % 1010,3 hPa 0,0 l/m O-SO 1,00 h 551 W/m 19,4 km/h (3 Bft)
26.02.2016 14:00 2,9 C 64 % 1009,7 hPa 0,0 l/m O 1,00 h 431 W/m 18,8 km/h (3 Bft)
26.02.2016 15:00 2,7 C 66 % 1009,0 hPa 0,0 l/m O 1,00 h 300 W/m 17,4 km/h (3 Bft)
26.02.2016 16:00 2,3 C 69 % 1008,0 hPa 0,0 l/m O 0,58 h 162 W/m 19,3 km/h (3 Bft)
26.02.2016 17:00 1,4 C 74 % 1007,5 hPa 0,0 l/m O 0,17 h 37 W/m 14,6 km/h (3 Bft)
26.02.2016 18:00 0,5 C 76 % 1007,3 hPa 0,0 l/m O-NO 0,00 h 0 W/m 7,9 km/h (2 Bft)
26.02.2016 19:00 -0,1 C 78 % 1007,1 hPa 0,0 l/m O-NO 0,00 h 0 W/m 6,1 km/h (2 Bft)
26.02.2016 20:00 -0,3 C 80 % 1006,6 hPa 0,0 l/m O-NO 0,00 h 0 W/m 6,7 km/h (2 Bft)
26.02.2016 21:00 -0,7 C 81 % 1006,6 hPa 0,0 l/m NO 0,00 h 0 W/m 3,1 km/h (1 Bft)
26.02.2016 22:00 -1,1 C 83 % 1006,5 hPa 0,0 l/m N 0,00 h 0 W/m 1,7 km/h (1 Bft)
26.02.2016 23:00 -1,5 C 85 % 1005,9 hPa 0,0 l/m NO 0,00 h 0 W/m 3,9 km/h (1 Bft)
27.02.2016 00:00 -1,9 C 85 % 1005,5 hPa 0,0 l/m N 0,00 h 0 W/m 1,6 km/h (1 Bft)
27.02.2016 01:00 -2,4 C 87 % 1005,3 hPa 0,0 l/m N 0,00 h 0 W/m 0,0 km/h (0 Bft)
27.02.2016 02:00 -3,0 C 88 % 1005,0 hPa 0,0 l/m N 0,00 h 0 W/m 0,0 km/h (0 Bft)
27.02.2016 03:00 -3,6 C 90 % 1004,7 hPa 0,0 l/m NO 0,00 h 0 W/m 0,8 km/h (0 Bft)
27.02.2016 04:00 -3,9 C 91 % 1004,3 hPa 0,0 l/m NO 0,00 h 0 W/m 1,2 km/h (1 Bft)
27.02.2016 05:00 -4,1 C 92 % 1004,2 hPa 0,0 l/m NO 0,00 h 0 W/m 2,0 km/h (1 Bft)
27.02.2016 06:00 -4,4 C 92 % 1004,2 hPa 0,0 l/m N 0,00 h 0 W/m 0,0 km/h (0 Bft)
27.02.2016 07:00 -4,6 C 93 % 1004,6 hPa 0,0 l/m NO 0,00 h 21 W/m 0,5 km/h (0 Bft)
27.02.2016 08:00 -3,8 C 94 % 1005,2 hPa 0,0 l/m NO 0,00 h 87 W/m 3,5 km/h (1 Bft)
27.02.2016 09:00 -2,4 C 91 % 1005,3 hPa 0,0 l/m NO 0,17 h 180 W/m 6,5 km/h (2 Bft)
27.02.2016 10:00 -1,3 C 89 % 1005,0 hPa 0,0 l/m O-NO 0,25 h 245 W/m 6,8 km/h (2 Bft)
27.02.2016 11:00 0,0 C 86 % 1005,1 hPa 0,0 l/m NO 1,00 h 449 W/m 8,3 km/h (2 Bft)
27.02.2016 12:00 2,0 C 81 % 1004,8 hPa 0,0 l/m NO 1,00 h 546 W/m 10,1 km/h (2 Bft)
27.02.2016 13:00 3,5 C 77 % 1004,3 hPa 0,0 l/m O-NO 1,00 h 542 W/m 11,3 km/h (2 Bft)
27.02.2016 14:00 5,1 C 74 % 1003,9 hPa 0,0 l/m NO 1,00 h 491 W/m 11,8 km/h (2 Bft)
27.02.2016 15:00 6,0 C 72 % 1003,8 hPa 0,0 l/m O-NO 1,00 h 366 W/m 13,4 km/h (3 Bft)
27.02.2016 16:00 5,8 C 73 % 1003,8 hPa 0,0 l/m O-NO 0,67 h 162 W/m 11,0 km/h (2 Bft)
27.02.2016 17:00 4,7 C 76 % 1004,1 hPa 0,0 l/m NO 0,08 h 32 W/m 7,6 km/h (2 Bft)
27.02.2016 18:00 3,1 C 81 % 1004,7 hPa 0,0 l/m NO 0,00 h 0 W/m 5,7 km/h (1 Bft)
27.02.2016 19:00 2,0 C 86 % 1005,1 hPa 0,0 l/m NO 0,00 h 0 W/m 8,6 km/h (2 Bft)
27.02.2016 20:00 1,3 C 90 % 1004,9 hPa 0,0 l/m N-NO 0,00 h 0 W/m 11,8 km/h (2 Bft)
27.02.2016 21:00 1,3 C 89 % 1005,0 hPa 0,0 l/m NO 0,00 h 0 W/m 10,4 km/h (2 Bft)
27.02.2016 22:00 0,8 C 89 % 1005,1 hPa 0,0 l/m NO 0,00 h 0 W/m 7,4 km/h (2 Bft)
27.02.2016 23:00 0,5 C 89 % 1005,1 hPa 0,0 l/m N-NO 0,00 h 0 W/m 9,5 km/h (2 Bft)
28.02.2016 00:00 0,3 C 90 % 1005,0 hPa 0,0 l/m N-NO 0,00 h 0 W/m 9,9 km/h (2 Bft)
28.02.2016 01:00 0,0 C 90 % 1004,8 hPa 0,0 l/m N-NO 0,00 h 0 W/m 11,2 km/h (2 Bft)
28.02.2016 02:00 -0,2 C 90 % 1004,7 hPa 0,0 l/m NO 0,00 h 0 W/m 13,6 km/h (3 Bft)
28.02.2016 03:00 -0,2 C 90 % 1004,3 hPa 0,0 l/m N-NO 0,00 h 0 W/m 16,0 km/h (3 Bft)
28.02.2016 04:00 -0,2 C 90 % 1004,0 hPa 0,0 l/m NO 0,00 h 0 W/m 13,7 km/h (3 Bft)
28.02.2016 05:00 0,0 C 89 % 1003,9 hPa 0,0 l/m NO 0,00 h 0 W/m 17,6 km/h (3 Bft)
28.02.2016 06:00 0,2 C 89 % 1004,0 hPa 0,0 l/m NO 0,00 h 0 W/m 14,1 km/h (3 Bft)
28.02.2016 07:00 0,2 C 89 % 1004,0 hPa 0,0 l/m N-NO 0,00 h 8 W/m 15,0 km/h (3 Bft)
28.02.2016 08:00 0,3 C 88 % 1004,9 hPa 0,0 l/m N-NO 0,00 h 24 W/m 16,6 km/h (3 Bft)
28.02.2016 09:00 0,7 C 87 % 1004,9 hPa 0,0 l/m NO 0,00 h 78 W/m 17,3 km/h (3 Bft)
28.02.2016 10:00 1,4 C 85 % 1004,9 hPa 0,0 l/m O-NO 0,00 h 179 W/m 16,9 km/h (3 Bft)
28.02.2016 11:00 1,9 C 83 % 1005,8 hPa 0,0 l/m NO 0,00 h 108 W/m 18,0 km/h (3 Bft)
28.02.2016 12:00 2,4 C 82 % 1006,5 hPa 0,0 l/m O-NO 0,00 h 160 W/m 14,8 km/h (3 Bft)
28.02.2016 13:00 3,2 C 80 % 1006,7 hPa 0,0 l/m O-NO 0,25 h 273 W/m 12,4 km/h (3 Bft)
28.02.2016 14:00 3,8 C 78 % 1007,0 hPa 0,0 l/m O-NO 0,08 h 191 W/m 12,0 km/h (2 Bft)
28.02.2016 15:00 3,8 C 79 % 1007,5 hPa 0,0 l/m N-NO 0,00 h 125 W/m 10,9 km/h (2 Bft)
28.02.2016 16:00 3,8 C 81 % 1008,5 hPa 0,0 l/m N-NO 0,00 h 44 W/m 11,3 km/h (2 Bft)
28.02.2016 17:00 3,7 C 82 % 1008,8 hPa 0,0 l/m NO 0,00 h 16 W/m 10,6 km/h (2 Bft)
28.02.2016 18:00 3,5 C 84 % 1009,4 hPa 0,0 l/m NO 0,00 h 0 W/m 12,6 km/h (3 Bft)
28.02.2016 19:00 3,1 C 85 % 1009,9 hPa 0,0 l/m NO 0,00 h 0 W/m 18,4 km/h (3 Bft)
28.02.2016 20:00 2,4 C 87 % 1010,2 hPa 0,0 l/m N-NO 0,00 h 0 W/m 18,6 km/h (3 Bft)
28.02.2016 21:00 1,9 C 89 % 1009,8 hPa 0,0 l/m NO 0,00 h 0 W/m 18,0 km/h (3 Bft)
28.02.2016 22:00 1,6 C 91 % 1009,7 hPa 0,0 l/m NO 0,00 h 0 W/m 18,8 km/h (3 Bft)
28.02.2016 23:00 1,3 C 92 % 1009,7 hPa 0,0 l/m NO 0,00 h 0 W/m 16,6 km/h (3 Bft)
Min-Datum _ 27.02.16 22.02.16 28.02.16 - - - - 23.02.16
_ Min-Zeit 07:20 14:15 04:45 - - - - 17:45
Minimum _ -4,7 C 53 % 1003,6 hPa - - - - 0,0 km/h (0 Bft)
Max-Datum _ 22.02.16 25.02.16 24.02.16 25.02.16 - 22.02.16 24.02.16 23.02.16
_ Max-Zeit 14:10 16:40 08:40 01:00 - 08:45 11:55 13:20
Maximum _ 15,0 C 100 % 1019,5 hPa 1,4 l/m - 0,08 h 717 W/m 45,1 km/h
W-SW (6 Bft)
Durchschnitt _ 2,8 C 85 % 1010,2 hPa #13,8 l/m NO #23:55 h 180 W/m 11,2 km/h (2 Bft)